SIA21 NZWN-YSSY
Flight info
| Callsign | SIA21 |
|---|---|
| Flight time | N/A |
| Altitude | 40000 |
| Route | TANEN M636 PLUGA DCT RIKNI DCT MARLN |
| Aircraft | A359/H-SDE2E3GHIJ3J4J5LM1ORWXY/LB1D1 |
Departure
| Time | 2026-04-28 05:14 |
|---|---|
| Airport | Wellington International Airport (NZWN) |
Arrival
| Time | N/A |
|---|---|
| Airport | Sydney Kingsford Smith International Airport (YSSY) |
| Time | Latitude | Longitude | Altitude | Speed | Heading |
|---|---|---|---|---|---|
| 2026-04-28 04:37 | -41.32738 | 174.81023 | 27 ft | 0 kts | 183° |
| 2026-04-28 05:02 | -41.32730 | 174.81024 | 26 ft | 2 kts | 190° |
| 2026-04-28 05:03 | -41.32715 | 174.81030 | 29 ft | 2 kts | 214° |
| 2026-04-28 05:03 | -41.32704 | 174.81046 | 30 ft | 2 kts | 257° |
| 2026-04-28 05:03 | -41.32703 | 174.81064 | 30 ft | 1 kts | 272° |
| 2026-04-28 05:03 | -41.32703 | 174.81066 | 30 ft | 0 kts | 272° |
| 2026-04-28 05:07 | -41.32702 | 174.81047 | 30 ft | 10 kts | 272° |
| 2026-04-28 05:07 | -41.32704 | 174.80935 | 28 ft | 13 kts | 258° |
| 2026-04-28 05:07 | -41.32739 | 174.80830 | 27 ft | 11 kts | 217° |
| 2026-04-28 05:08 | -41.32813 | 174.80811 | 25 ft | 12 kts | 185° |
| 2026-04-28 05:08 | -41.32909 | 174.80804 | 28 ft | 16 kts | 183° |
| 2026-04-28 05:08 | -41.33028 | 174.80795 | 29 ft | 19 kts | 183° |
| 2026-04-28 05:08 | -41.33170 | 174.80785 | 27 ft | 22 kts | 183° |
| 2026-04-28 05:09 | -41.33330 | 174.80776 | 29 ft | 25 kts | 181° |
| 2026-04-28 05:09 | -41.33466 | 174.80769 | 23 ft | 7 kts | 182° |
| 2026-04-28 05:09 | -41.33475 | 174.80768 | 25 ft | 0 kts | 182° |
| 2026-04-28 05:12 | -41.33476 | 174.80768 | 25 ft | 2 kts | 182° |
| 2026-04-28 05:12 | -41.33542 | 174.80741 | 24 ft | 12 kts | 216° |
| 2026-04-28 05:12 | -41.33564 | 174.80660 | 22 ft | 8 kts | 290° |
| 2026-04-28 05:13 | -41.33540 | 174.80643 | 20 ft | 4 kts | 348° |
| 2026-04-28 05:13 | -41.33479 | 174.80636 | 22 ft | 19 kts | 1° |
| 2026-04-28 05:13 | -41.32999 | 174.80668 | 28 ft | 121 kts | 2° |
| 2026-04-28 05:13 | -41.31876 | 174.80737 | 297 ft | 190 kts | 2° |
| 2026-04-28 05:14 | -41.30378 | 174.80846 | 862 ft | 242 kts | 3° |
| 2026-04-28 05:14 | -41.28599 | 174.80980 | 2014 ft | 270 kts | 2° |
| 2026-04-28 05:14 | -41.26737 | 174.81038 | 3682 ft | 260 kts | 354° |
| 2026-04-28 05:14 | -41.25009 | 174.80626 | 4811 ft | 248 kts | 340° |
| 2026-04-28 05:15 | -41.23380 | 174.80005 | 5713 ft | 239 kts | 338° |
| 2026-04-28 05:15 | -41.21814 | 174.79277 | 6462 ft | 241 kts | 338° |
| 2026-04-28 05:15 | -41.20148 | 174.78566 | 6797 ft | 261 kts | 340° |
| 2026-04-28 05:15 | -41.18373 | 174.77886 | 7368 ft | 268 kts | 341° |
| 2026-04-28 05:16 | -41.16568 | 174.77232 | 8036 ft | 271 kts | 342° |
| 2026-04-28 05:16 | -41.14746 | 174.76508 | 8694 ft | 274 kts | 336° |
| 2026-04-28 05:16 | -41.13142 | 174.75157 | 9334 ft | 274 kts | 315° |
| 2026-04-28 05:17 | -41.10603 | 174.71391 | 10009 ft | 277 kts | 308° |
| 2026-04-28 05:17 | -41.09356 | 174.69436 | 10018 ft | 278 kts | 308° |
| 2026-04-28 05:17 | -41.08097 | 174.67478 | 10018 ft | 279 kts | 308° |
| 2026-04-28 05:17 | -41.06825 | 174.65518 | 10014 ft | 279 kts | 308° |
| 2026-04-28 05:18 | -41.06012 | 174.64206 | 10033 ft | 278 kts | 304° |
| 2026-04-28 05:18 | -41.05066 | 174.61942 | 10164 ft | 285 kts | 289° |
| 2026-04-28 05:18 | -41.04434 | 174.58472 | 10610 ft | 301 kts | 279° |
| 2026-04-28 05:18 | -41.04189 | 174.56592 | 10808 ft | 311 kts | 278° |
| 2026-04-28 05:19 | -41.03844 | 174.53718 | 11210 ft | 319 kts | 278° |
| 2026-04-28 05:19 | -41.03501 | 174.50804 | 11820 ft | 321 kts | 278° |
| 2026-04-28 05:19 | -41.03159 | 174.47870 | 12387 ft | 324 kts | 278° |
| 2026-04-28 05:19 | -41.02700 | 174.43920 | 13112 ft | 330 kts | 278° |
| 2026-04-28 05:20 | -41.02466 | 174.41911 | 13453 ft | 333 kts | 278° |
| 2026-04-28 05:20 | -41.02112 | 174.38875 | 14055 ft | 335 kts | 278° |
| 2026-04-28 05:20 | -41.01755 | 174.35814 | 14564 ft | 338 kts | 277° |
| 2026-04-28 05:20 | -41.01394 | 174.32731 | 15081 ft | 340 kts | 277° |
| 2026-04-28 05:21 | -41.01030 | 174.29622 | 15607 ft | 343 kts | 277° |
| 2026-04-28 05:21 | -41.00662 | 174.26497 | 16157 ft | 344 kts | 277° |
| 2026-04-28 05:21 | -41.00293 | 174.23365 | 16739 ft | 345 kts | 277° |
| 2026-04-28 05:21 | -40.99921 | 174.20209 | 17265 ft | 348 kts | 277° |
| 2026-04-28 05:22 | -40.99546 | 174.17036 | 17786 ft | 350 kts | 277° |
| 2026-04-28 05:22 | -40.99165 | 174.13836 | 18325 ft | 353 kts | 277° |
| 2026-04-28 05:22 | -40.98783 | 174.10618 | 18799 ft | 355 kts | 277° |
| 2026-04-28 05:22 | -40.98401 | 174.07416 | 19243 ft | 358 kts | 277° |
| 2026-04-28 05:23 | -40.98011 | 174.04163 | 19701 ft | 359 kts | 277° |
| 2026-04-28 05:23 | -40.97618 | 174.00877 | 20133 ft | 361 kts | 277° |
| 2026-04-28 05:23 | -40.97222 | 173.97587 | 20590 ft | 363 kts | 277° |
| 2026-04-28 05:23 | -40.96822 | 173.94266 | 21031 ft | 365 kts | 277° |
| 2026-04-28 05:24 | -40.96420 | 173.90935 | 21463 ft | 367 kts | 277° |
| 2026-04-28 05:24 | -40.96016 | 173.87587 | 21907 ft | 370 kts | 277° |
| 2026-04-28 05:24 | -40.95607 | 173.84218 | 22339 ft | 372 kts | 277° |
| 2026-04-28 05:24 | -40.95195 | 173.80833 | 22758 ft | 374 kts | 277° |
| 2026-04-28 05:25 | -40.94784 | 173.77471 | 23175 ft | 376 kts | 277° |
| 2026-04-28 05:25 | -40.94360 | 173.74007 | 23605 ft | 378 kts | 277° |
| 2026-04-28 05:25 | -40.93943 | 173.70606 | 23994 ft | 380 kts | 277° |
| 2026-04-28 05:25 | -40.93517 | 173.67139 | 24335 ft | 382 kts | 277° |
| 2026-04-28 05:26 | -40.93089 | 173.63663 | 24677 ft | 385 kts | 277° |
| 2026-04-28 05:26 | -40.92656 | 173.60160 | 25016 ft | 387 kts | 277° |
| 2026-04-28 05:26 | -40.92220 | 173.56640 | 25365 ft | 389 kts | 277° |
| 2026-04-28 05:26 | -40.91781 | 173.53110 | 25727 ft | 391 kts | 277° |
| 2026-04-28 05:27 | -40.91338 | 173.49551 | 26075 ft | 393 kts | 277° |
| 2026-04-28 05:27 | -40.90892 | 173.45976 | 26438 ft | 396 kts | 277° |
| 2026-04-28 05:27 | -40.90440 | 173.42363 | 26820 ft | 398 kts | 278° |
| 2026-04-28 05:27 | -40.89991 | 173.38788 | 27214 ft | 400 kts | 278° |
| 2026-04-28 05:28 | -40.89532 | 173.35138 | 27617 ft | 403 kts | 278° |
| 2026-04-28 05:28 | -40.89070 | 173.31478 | 28037 ft | 405 kts | 278° |
| 2026-04-28 05:28 | -40.88604 | 173.27793 | 28452 ft | 408 kts | 278° |
| 2026-04-28 05:28 | -40.88132 | 173.24070 | 28884 ft | 411 kts | 278° |
| 2026-04-28 05:29 | -40.87658 | 173.20343 | 29302 ft | 413 kts | 278° |
| 2026-04-28 05:29 | -40.87177 | 173.16576 | 29731 ft | 416 kts | 278° |
| 2026-04-28 05:29 | -40.86694 | 173.12796 | 30146 ft | 420 kts | 278° |
| 2026-04-28 05:29 | -40.86202 | 173.08959 | 30507 ft | 424 kts | 278° |
| 2026-04-28 05:30 | -40.85707 | 173.05106 | 30888 ft | 427 kts | 278° |
| 2026-04-28 05:30 | -40.85208 | 173.01231 | 31280 ft | 429 kts | 278° |
| 2026-04-28 05:30 | -40.84704 | 172.97339 | 31655 ft | 431 kts | 278° |
| 2026-04-28 05:30 | -40.84203 | 172.93469 | 32042 ft | 433 kts | 278° |
| 2026-04-28 05:31 | -40.83691 | 172.89536 | 32389 ft | 436 kts | 278° |
| 2026-04-28 05:31 | -40.83176 | 172.85578 | 32761 ft | 438 kts | 278° |
| 2026-04-28 05:31 | -40.82655 | 172.81597 | 33135 ft | 441 kts | 278° |
| 2026-04-28 05:31 | -40.82130 | 172.77590 | 33477 ft | 443 kts | 278° |
| 2026-04-28 05:32 | -40.81602 | 172.73573 | 33826 ft | 445 kts | 278° |
| 2026-04-28 05:32 | -40.81076 | 172.69583 | 34174 ft | 447 kts | 278° |
| 2026-04-28 05:32 | -40.80534 | 172.65479 | 34479 ft | 449 kts | 278° |
| 2026-04-28 05:32 | -40.80001 | 172.61457 | 34730 ft | 452 kts | 278° |
| 2026-04-28 05:33 | -40.79457 | 172.57363 | 35046 ft | 453 kts | 278° |
| 2026-04-28 05:33 | -40.78911 | 172.53274 | 35446 ft | 452 kts | 278° |
| 2026-04-28 05:33 | -40.78366 | 172.49193 | 35847 ft | 451 kts | 278° |
| 2026-04-28 05:33 | -40.77818 | 172.45106 | 36258 ft | 451 kts | 278° |
| 2026-04-28 05:34 | -40.77272 | 172.41042 | 36651 ft | 450 kts | 278° |
| 2026-04-28 05:34 | -40.76722 | 172.36966 | 36958 ft | 452 kts | 278° |
| 2026-04-28 05:34 | -40.76169 | 172.32875 | 37251 ft | 453 kts | 278° |
| 2026-04-28 05:34 | -40.75614 | 172.28778 | 37643 ft | 452 kts | 278° |
| 2026-04-28 05:35 | -40.75060 | 172.24702 | 38034 ft | 452 kts | 278° |
| 2026-04-28 05:35 | -40.74504 | 172.20627 | 38381 ft | 451 kts | 278° |
| 2026-04-28 05:35 | -40.73947 | 172.16553 | 38722 ft | 451 kts | 278° |
| 2026-04-28 05:35 | -40.73390 | 172.12483 | 39042 ft | 451 kts | 278° |
| 2026-04-28 05:36 | -40.72831 | 172.08416 | 39302 ft | 450 kts | 278° |
| 2026-04-28 05:36 | -40.72270 | 172.04344 | 39537 ft | 451 kts | 278° |
| 2026-04-28 05:36 | -40.71715 | 172.00331 | 39745 ft | 451 kts | 278° |
| 2026-04-28 05:36 | -40.71152 | 171.96260 | 39942 ft | 452 kts | 278° |
| 2026-04-28 05:37 | -40.70583 | 171.92168 | 40165 ft | 452 kts | 278° |
| 2026-04-28 05:37 | -40.70015 | 171.88088 | 40302 ft | 453 kts | 278° |
| 2026-04-28 05:37 | -40.68877 | 171.79952 | 40331 ft | 450 kts | 278° |
| 2026-04-28 05:38 | -40.67737 | 171.71840 | 40330 ft | 451 kts | 278° |
| 2026-04-28 05:38 | -40.66589 | 171.63718 | 40341 ft | 451 kts | 278° |
| 2026-04-28 05:39 | -40.65432 | 171.55574 | 40345 ft | 452 kts | 279° |
| 2026-04-28 05:39 | -40.64276 | 171.47483 | 40350 ft | 453 kts | 279° |
| 2026-04-28 05:40 | -40.63107 | 171.39340 | 40345 ft | 453 kts | 279° |
| 2026-04-28 05:40 | -40.61930 | 171.31189 | 40335 ft | 453 kts | 279° |
| 2026-04-28 05:41 | -40.60748 | 171.23045 | 40343 ft | 453 kts | 279° |
| 2026-04-28 05:41 | -40.59558 | 171.14884 | 40346 ft | 454 kts | 279° |
| 2026-04-28 05:42 | -40.58362 | 171.06729 | 40345 ft | 454 kts | 279° |
| 2026-04-28 05:42 | -40.57158 | 170.98556 | 40345 ft | 454 kts | 279° |
| 2026-04-28 05:43 | -40.55951 | 170.90411 | 40346 ft | 454 kts | 279° |
| 2026-04-28 05:43 | -40.54744 | 170.82299 | 40351 ft | 454 kts | 279° |
| 2026-04-28 05:44 | -40.53523 | 170.74142 | 40351 ft | 454 kts | 279° |
| 2026-04-28 05:44 | -40.52302 | 170.66024 | 40355 ft | 452 kts | 279° |
| 2026-04-28 05:45 | -40.51077 | 170.57918 | 40357 ft | 452 kts | 279° |
| 2026-04-28 05:45 | -40.49602 | 170.49861 | 40354 ft | 453 kts | 284° |